Time;durP1;ratioP1;P1;durP2;ratioP2;P2;SDS_P1;SDS_P2;PMS_P1;PMS_P2;Temp;Humidity;BMP_temperature;BMP_pressure;BME280_temperature;BME280_humidity;BME280_pressure;Samples;Min_cycle;Max_cycle;Signal;HPM_P1;HPM_P2
2021/12/19 00:09:19;;;;;;;36.57;22.77;;;2.80;80.20;;;;;;4995870;28;20042;-68
2021/12/19 00:11:45;;;;;;;36.73;21.47;;;2.70;80.90;;;;;;4995722;28;20022;-67
2021/12/19 00:14:11;;;;;;;33.57;20.03;;;2.60;81.70;;;;;;4995389;28;20041;-70
2021/12/19 00:16:36;;;;;;;35.53;21.17;;;2.40;82.20;;;;;;4995486;28;20026;-68
2021/12/19 00:19:02;;;;;;;30.97;20.40;;;2.40;82.40;;;;;;4995335;28;20472;-70
2021/12/19 00:21:28;;;;;;;34.97;19.67;;;2.30;82.80;;;;;;4995533;28;20519;-67
2021/12/19 00:23:55;;;;;;;35.77;20.20;;;2.30;82.50;;;;;;4995552;28;20026;-68
2021/12/19 00:26:21;;;;;;;31.07;20.17;;;2.40;82.60;;;;;;4995192;28;20482;-69
2021/12/19 00:28:48;;;;;;;37.40;21.80;;;2.40;82.30;;;;;;4995069;28;20486;-68
2021/12/19 00:31:14;;;;;;;36.23;21.77;;;2.40;82.00;;;;;;4995402;28;20018;-69
2021/12/19 00:33:41;;;;;;;39.90;22.57;;;2.50;81.60;;;;;;4995040;28;20077;-68
2021/12/19 00:36:07;;;;;;;45.33;26.13;;;2.60;81.30;;;;;;4995373;28;20026;-67
2021/12/19 00:38:34;;;;;;;46.00;28.37;;;2.60;80.60;;;;;;4995336;28;20018;-68
2021/12/19 00:41:00;;;;;;;52.67;28.60;;;2.70;79.40;;;;;;4994939;28;20114;-68
2021/12/19 00:46:26;;;;;;;46.77;28.07;;;2.60;79.30;;;;;;4962098;28;20030;-68
2021/12/19 00:48:54;;;;;;;46.80;27.93;;;2.60;78.90;;;;;;4995157;28;20038;-68
2021/12/19 00:51:23;;;;;;;47.30;27.80;;;2.40;79.40;;;;;;4994993;28;20023;-68
2021/12/19 00:53:51;;;;;;;47.07;27.37;;;2.40;79.60;;;;;;4994656;28;20034;-69
2021/12/19 00:56:16;;;;;;;44.83;26.70;;;2.30;79.70;;;;;;4994521;28;20471;-68
2021/12/19 00:58:43;;;;;;;49.80;28.50;;;2.40;79.50;;;;;;4994450;28;20022;-71
2021/12/19 01:01:12;;;;;;;53.30;30.37;;;2.40;79.10;;;;;;4994664;28;20029;-67
2021/12/19 01:03:43;;;;;;;50.97;29.37;;;2.40;79.00;;;;;;4994709;28;20030;-70
2021/12/19 01:06:09;;;;;;;49.83;28.30;;;2.50;78.70;;;;;;4994545;28;20018;-67
2021/12/19 01:08:35;;;;;;;52.13;29.53;;;2.40;78.40;;;;;;4994279;28;20042;-67
2021/12/19 01:11:01;;;;;;;54.70;29.67;;;2.40;78.30;;;;;;4994244;28;20030;-70
2021/12/19 01:13:27;;;;;;;53.00;29.43;;;2.40;78.20;;;;;;4994198;28;20085;-67
2021/12/19 01:15:53;;;;;;;47.23;29.43;;;2.30;78.90;;;;;;4994471;28;20121;-68
2021/12/19 01:18:19;;;;;;;49.87;29.93;;;2.30;78.70;;;;;;4994522;28;20038;-67
2021/12/19 01:20:45;;;;;;;50.97;28.77;;;2.30;78.40;;;;;;4994265;28;20474;-69
2021/12/19 01:23:12;;;;;;;52.10;29.97;;;2.40;78.30;;;;;;4994175;28;20368;-70
2021/12/19 01:25:38;;;;;;;50.83;30.50;;;2.40;78.00;;;;;;4994169;28;20026;-67
2021/12/19 01:28:05;;;;;;;55.00;31.07;;;2.40;78.10;;;;;;4994243;28;20057;-67
2021/12/19 01:30:30;;;;;;;47.83;28.83;;;2.20;78.50;;;;;;4994108;28;20022;-68
2021/12/19 01:32:56;;;;;;;45.00;27.27;;;2.10;79.30;;;;;;4993837;28;20040;-69
2021/12/19 01:35:24;;;;;;;45.37;26.60;;;2.10;79.30;;;;;;4993927;28;20561;-67
2021/12/19 01:37:50;;;;;;;45.57;25.23;;;2.00;79.60;;;;;;4993756;28;20041;-67
2021/12/19 01:40:18;;;;;;;48.83;27.37;;;2.00;79.70;;;;;;4994195;28;20463;-66
2021/12/19 01:42:48;;;;;;;45.67;25.73;;;2.00;79.50;;;;;;4994048;28;20026;-67
2021/12/19 01:45:21;;;;;;;48.23;27.57;;;2.10;79.60;;;;;;4994123;28;20026;-67
2021/12/19 01:47:47;;;;;;;49.33;27.00;;;2.10;79.10;;;;;;4993955;28;20105;-68
2021/12/19 01:50:13;;;;;;;47.60;26.80;;;2.00;80.10;;;;;;4993721;28;20042;-67
2021/12/19 01:52:39;;;;;;;42.13;25.97;;;1.90;80.60;;;;;;4993824;28;20078;-67
2021/12/19 01:55:05;;;;;;;41.23;25.27;;;1.80;81.00;;;;;;4993893;28;20041;-67
2021/12/19 01:57:31;;;;;;;40.73;24.20;;;1.80;81.50;;;;;;4993725;28;20173;-67
2021/12/19 01:59:57;;;;;;;42.77;24.37;;;1.70;82.20;;;;;;4990815;28;20786;-68
2021/12/19 02:02:22;;;;;;;37.60;24.03;;;1.70;82.20;;;;;;4990691;28;20057;-68
2021/12/19 02:04:48;;;;;;;42.50;24.37;;;1.90;81.80;;;;;;4992044;28;20030;-68
2021/12/19 02:07:14;;;;;;;46.73;25.23;;;2.00;80.90;;;;;;4993480;28;20121;-67
2021/12/19 02:09:44;;;;;;;38.00;24.30;;;2.00;80.50;;;;;;4993525;28;20030;-67
2021/12/19 02:12:10;;;;;;;40.57;23.87;;;2.10;80.00;;;;;;4993502;28;20027;-68
2021/12/19 02:14:36;;;;;;;41.23;23.83;;;2.00;80.00;;;;;;4993227;28;20443;-67
2021/12/19 02:17:03;;;;;;;36.90;22.43;;;2.10;79.70;;;;;;4993575;28;20054;-67
2021/12/19 02:19:30;;;;;;;39.60;23.03;;;2.10;79.60;;;;;;4993449;28;20029;-67
2021/12/19 02:21:55;;;;;;;39.50;24.70;;;2.00;79.30;;;;;;4994773;28;20089;-67
2021/12/19 02:24:21;;;;;;;43.20;24.63;;;2.10;79.30;;;;;;4997703;28;20049;-67
2021/12/19 02:26:47;;;;;;;40.07;23.23;;;2.10;79.80;;;;;;4997452;28;20026;-69
2021/12/19 02:29:12;;;;;;;38.13;23.57;;;2.00;79.10;;;;;;4997080;28;20477;-67
2021/12/19 02:31:39;;;;;;;40.93;22.87;;;2.10;78.80;;;;;;4997318;28;20530;-67
2021/12/19 02:34:13;;;;;;;42.77;23.53;;;2.00;78.90;;;;;;4996848;28;20050;-68
2021/12/19 02:50:19;;;;;;;37.87;23.43;;;1.70;79.80;;;;;;4997164;28;20034;-67
2021/12/19 02:52:45;;;;;;;36.53;22.73;;;1.60;80.60;;;;;;4996732;28;20022;-69
2021/12/19 02:55:15;;;;;;;37.27;22.67;;;1.60;82.00;;;;;;4996994;28;20293;-68
2021/12/19 02:57:41;;;;;;;35.03;22.17;;;1.50;82.30;;;;;;4996420;28;20022;-68
2021/12/19 03:00:12;;;;;;;35.00;21.30;;;1.50;82.70;;;;;;4996981;28;20034;-67
2021/12/19 03:02:37;;;;;;;32.07;19.90;;;1.40;83.10;;;;;;4996845;28;20129;-68
2021/12/19 03:05:04;;;;;;;29.20;17.40;;;1.30;83.80;;;;;;4996935;28;20030;-68
2021/12/19 03:07:30;;;;;;;26.50;17.30;;;1.30;84.30;;;;;;4996778;28;20453;-67
2021/12/19 03:10:41;;;;;;;32.50;18.47;;;1.40;84.20;;;;;;4996686;28;20109;-67
2021/12/19 03:18:19;;;;;;;30.60;19.37;;;1.40;83.80;;;;;;4996613;28;20539;-68
2021/12/19 03:20:44;;;;;;;31.00;18.90;;;1.20;84.40;;;;;;4996619;28;20023;-68
2021/12/19 03:23:13;;;;;;;32.03;18.33;;;1.20;84.40;;;;;;4996482;28;20462;-68
2021/12/19 03:25:39;;;;;;;30.70;18.60;;;1.20;84.70;;;;;;4996748;28;20429;-68
2021/12/19 03:28:08;;;;;;;30.27;20.43;;;1.20;84.90;;;;;;4996315;28;20038;-68
2021/12/19 03:30:34;;;;;;;36.33;21.83;;;1.20;85.10;;;;;;4996436;28;20019;-67
2021/12/19 03:33:01;;;;;;;35.57;20.47;;;1.30;84.30;;;;;;4996248;28;20030;-70
2021/12/19 03:35:30;;;;;;;37.43;21.63;;;1.20;84.60;;;;;;4996413;28;20066;-67
2021/12/19 03:38:00;;;;;;;33.53;21.80;;;1.20;84.60;;;;;;4996208;28;20030;-67
2021/12/19 03:40:38;;;;;;;34.27;21.40;;;1.30;83.60;;;;;;4996041;28;20057;-68
2021/12/19 03:43:08;;;;;;;32.20;20.67;;;1.40;83.00;;;;;;4996083;28;20033;-68
2021/12/19 03:45:35;;;;;;;37.30;21.07;;;1.60;82.20;;;;;;4996295;28;20029;-68
2021/12/19 03:48:03;;;;;;;34.90;20.63;;;1.60;81.30;;;;;;4996366;28;20030;-70
2021/12/19 03:50:32;;;;;;;34.90;20.93;;;1.70;80.60;;;;;;4995937;28;20026;-67
2021/12/19 03:52:59;;;;;;;29.80;18.23;;;1.70;80.10;;;;;;4995744;28;20031;-68
2021/12/19 03:55:26;;;;;;;27.67;17.03;;;1.70;80.10;;;;;;4995568;28;20018;-71
2021/12/19 03:57:53;;;;;;;34.13;18.37;;;1.70;80.00;;;;;;4996101;28;20027;-66
2021/12/19 04:00:25;;;;;;;28.60;17.20;;;1.70;79.70;;;;;;4995881;28;20033;-68
2021/12/19 04:02:54;;;;;;;28.92;18.00;;;1.70;79.50;;;;;;4995853;28;20018;-67
2021/12/19 04:05:20;;;;;;;30.07;18.80;;;1.60;79.90;;;;;;4978274;28;20403;-67
2021/12/19 04:07:46;;;;;;;32.97;18.37;;;1.60;79.90;;;;;;4995546;28;20089;-66
2021/12/19 04:10:12;;;;;;;30.80;18.50;;;1.50;80.10;;;;;;4995549;28;20443;-69
2021/12/19 04:12:37;;;;;;;32.03;18.93;;;1.40;81.00;;;;;;4995369;28;20027;-68
2021/12/19 04:15:04;;;;;;;33.90;19.23;;;1.40;81.00;;;;;;4995397;28;20070;-67
2021/12/19 04:17:30;;;;;;;28.23;17.80;;;1.30;81.80;;;;;;4995681;28;20475;-67
2021/12/19 04:19:56;;;;;;;31.40;19.10;;;1.20;82.80;;;;;;4995418;28;20031;-68
2021/12/19 04:22:21;;;;;;;32.00;18.20;;;1.20;83.30;;;;;;4995433;28;20201;-68
2021/12/19 04:24:47;;;;;;;31.53;18.37;;;1.20;83.40;;;;;;4995665;28;20014;-68
2021/12/19 04:27:13;;;;;;;31.80;18.00;;;1.30;82.40;;;;;;4995415;28;20065;-68
2021/12/19 04:29:39;;;;;;;27.60;17.53;;;1.40;81.70;;;;;;4995232;28;20077;-68
2021/12/19 04:32:07;;;;;;;31.03;18.03;;;1.40;81.70;;;;;;4995119;28;20447;-70
2021/12/19 04:34:33;;;;;;;30.20;18.60;;;1.40;81.20;;;;;;4994854;28;20046;-67
2021/12/19 04:37:08;;;;;;;27.30;17.07;;;1.50;80.80;;;;;;4995069;28;20026;-69
2021/12/19 05:00:55;;;;;;;32.50;19.10;;;1.20;80.40;;;;;;4995436;28;20068;-67
2021/12/19 05:03:45;;;;;;;32.88;20.02;;;1.20;80.60;;;;;;4994653;28;20065;-67
2021/12/19 05:06:49;;;;;;;34.63;20.03;;;1.10;81.40;;;;;;4994300;28;20084;-67
2021/12/19 05:14:37;;;;;;;32.10;18.77;;;0.80;82.00;;;;;;4994591;28;20467;-66
2021/12/19 05:17:10;;;;;;;30.50;19.63;;;0.60;83.40;;;;;;4994543;28;20022;-67
2021/12/19 05:19:46;;;;;;;32.08;19.55;;;0.60;83.60;;;;;;4994353;28;20029;-66
2021/12/19 05:22:12;;;;;;;34.37;19.30;;;0.60;83.90;;;;;;4994074;28;20026;-67
2021/12/19 05:27:30;;;;;;;32.30;19.27;;;0.70;82.80;;;;;;4971190;28;20121;-67
2021/12/19 05:29:56;;;;;;;30.93;18.67;;;0.80;82.50;;;;;;4976845;28;20121;-66
2021/12/19 05:32:22;;;;;;;35.77;18.73;;;0.80;81.80;;;;;;4994142;28;20073;-65
2021/12/19 05:34:48;;;;;;;30.20;19.00;;;0.90;81.20;;;;;;4993885;28;20502;-67
2021/12/19 05:45:32;;;;;;;30.20;19.13;;;0.90;80.60;;;;;;4994285;28;20468;-70
2021/12/19 05:47:58;;;;;;;33.73;17.00;;;0.90;81.30;;;;;;4993824;28;20030;-66
2021/12/19 05:50:24;;;;;;;32.40;17.50;;;0.80;81.70;;;;;;4994062;28;20014;-66
2021/12/19 05:52:50;;;;;;;29.37;16.80;;;0.80;82.00;;;;;;4993897;28;20073;-67
2021/12/19 05:55:17;;;;;;;30.07;16.87;;;0.80;81.90;;;;;;4993971;28;20088;-67
2021/12/19 05:57:43;;;;;;;32.60;17.20;;;0.80;82.00;;;;;;4993592;28;20029;-66
2021/12/19 06:00:13;;;;;;;28.27;17.40;;;0.90;81.60;;;;;;4993975;28;20061;-67
2021/12/19 06:02:43;;;;;;;28.50;17.70;;;0.90;81.10;;;;;;4993721;28;20361;-74
2021/12/19 06:05:09;;;;;;;26.33;16.50;;;0.80;81.90;;;;;;4993830;28;20050;-70
2021/12/19 06:07:36;;;;;;;28.73;16.87;;;0.80;81.40;;;;;;4993998;28;20364;-68
2021/12/19 06:10:03;;;;;;;28.73;16.87;;;0.80;82.00;;;;;;4993542;28;20113;-68
2021/12/19 06:12:29;;;;;;;31.87;18.33;;;0.70;82.80;;;;;;4976528;28;20026;-68
2021/12/19 06:14:55;;;;;;;41.73;20.17;;;0.60;83.60;;;;;;4993237;28;20122;-68
2021/12/19 06:17:20;;;;;;;29.43;18.30;;;0.60;83.70;;;;;;4993378;28;20467;-71
2021/12/19 06:19:46;;;;;;;29.67;19.00;;;0.40;84.20;;;;;;4993505;28;20026;-67
2021/12/19 06:22:12;;;;;;;31.33;19.53;;;0.40;84.80;;;;;;4993417;28;20027;-67
2021/12/19 06:24:38;;;;;;;33.93;18.43;;;0.20;85.40;;;;;;4993731;28;20113;-67
2021/12/19 06:27:04;;;;;;;30.60;19.03;;;0.10;86.00;;;;;;4993436;28;20081;-67
2021/12/19 06:29:31;;;;;;;28.57;17.90;;;0.00;87.00;;;;;;4993637;28;20033;-67
2021/12/19 06:31:57;;;;;;;31.50;19.33;;;0.00;87.60;;;;;;4993430;28;20034;-68
2021/12/19 06:34:23;;;;;;;28.80;18.43;;;0.00;88.40;;;;;;4993185;28;20050;-67
2021/12/19 06:36:51;;;;;;;33.50;18.20;;;0.10;87.50;;;;;;4993409;28;20407;-67
2021/12/19 06:39:18;;;;;;;30.87;19.20;;;0.20;86.20;;;;;;4993340;28;20038;-71
2021/12/19 06:41:44;;;;;;;32.57;18.17;;;0.20;87.40;;;;;;4993296;28;20351;-67
2021/12/19 06:44:10;;;;;;;27.00;16.57;;;0.20;87.50;;;;;;4993295;28;20022;-67
2021/12/19 06:46:35;;;;;;;28.37;17.20;;;0.20;87.70;;;;;;4993333;28;20069;-67
2021/12/19 06:49:01;;;;;;;27.00;15.80;;;0.10;88.30;;;;;;4993323;28;20027;-69
2021/12/19 06:51:27;;;;;;;27.83;17.57;;;0.20;88.90;;;;;;4993532;28;20034;-68
2021/12/19 06:53:52;;;;;;;24.53;16.67;;;0.30;86.70;;;;;;4993106;28;20030;-67
2021/12/19 06:56:18;;;;;;;27.87;16.73;;;0.30;87.00;;;;;;4993216;28;20030;-67
2021/12/19 06:58:44;;;;;;;25.87;16.87;;;0.30;87.20;;;;;;4993036;28;20401;-67
2021/12/19 07:01:09;;;;;;;29.57;18.00;;;0.30;87.00;;;;;;4993333;28;20019;-68
2021/12/19 07:03:35;;;;;;;31.90;17.20;;;0.20;87.30;;;;;;4992797;28;20054;-67
2021/12/19 07:06:01;;;;;;;32.60;18.27;;;0.20;87.20;;;;;;4993190;28;20475;-67
2021/12/19 07:08:27;;;;;;;28.63;18.27;;;0.20;86.20;;;;;;4994821;28;20022;-68
2021/12/19 07:10:53;;;;;;;28.60;17.70;;;0.20;87.10;;;;;;4996818;28;20030;-68
2021/12/19 07:13:21;;;;;;;31.63;18.90;;;0.20;87.10;;;;;;4996416;28;20034;-68
2021/12/19 07:15:52;;;;;;;31.77;19.57;;;0.30;87.80;;;;;;4996743;28;20109;-68
2021/12/19 07:18:18;;;;;;;31.63;19.07;;;0.30;87.20;;;;;;4996685;28;20103;-66
2021/12/19 07:20:44;;;;;;;33.20;20.67;;;0.50;86.40;;;;;;4996422;28;20050;-68
2021/12/19 07:23:16;;;;;;;31.27;21.00;;;0.50;85.90;;;;;;4996490;28;20026;-68
2021/12/19 07:25:42;;;;;;;36.63;21.30;;;0.50;85.70;;;;;;4996241;28;20052;-67
2021/12/19 07:28:09;;;;;;;31.13;19.63;;;0.50;86.30;;;;;;4996522;28;20399;-67
2021/12/19 07:30:37;;;;;;;37.80;21.97;;;0.60;85.60;;;;;;4996252;28;20034;-68
2021/12/19 07:33:04;;;;;;;36.40;20.30;;;0.50;85.50;;;;;;4995417;28;20039;-66
2021/12/19 07:35:31;;;;;;;34.30;18.37;;;0.40;85.50;;;;;;4993886;28;20086;-71
2021/12/19 07:37:57;;;;;;;34.03;19.63;;;0.50;85.50;;;;;;4993737;28;20022;-67
2021/12/19 07:40:26;;;;;;;34.53;19.63;;;0.50;85.10;;;;;;4993625;28;20073;-68
2021/12/19 07:42:52;;;;;;;38.43;19.63;;;0.70;84.40;;;;;;4993641;28;20026;-67
2021/12/19 07:45:18;;;;;;;34.50;20.77;;;0.80;83.70;;;;;;4994264;28;20026;-72
2021/12/19 07:47:46;;;;;;;31.60;18.80;;;0.90;83.60;;;;;;4996253;28;20030;-68
2021/12/19 07:50:13;;;;;;;29.20;17.40;;;1.00;83.40;;;;;;4996088;28;20479;-67
2021/12/19 07:52:39;;;;;;;29.67;17.03;;;1.10;82.90;;;;;;4995594;28;20030;-67
2021/12/19 07:55:06;;;;;;;31.17;16.83;;;1.10;82.60;;;;;;4992489;28;20041;-68
2021/12/19 07:57:32;;;;;;;24.87;15.90;;;1.10;84.30;;;;;;4995076;28;20089;-67
2021/12/19 07:59:57;;;;;;;25.73;15.40;;;1.20;83.40;;;;;;4995517;28;20030;-67
2021/12/19 08:02:23;;;;;;;23.63;15.53;;;1.30;83.60;;;;;;4995040;28;20427;-67
2021/12/19 08:04:49;;;;;;;27.43;16.63;;;1.40;82.80;;;;;;4994919;28;20050;-67
2021/12/19 08:07:17;;;;;;;25.63;15.93;;;1.50;82.60;;;;;;4995153;28;20357;-68
2021/12/19 08:12:27;;;;;;;26.87;16.73;;;1.60;83.10;;;;;;4993983;28;20069;-67
2021/12/19 08:14:53;;;;;;;24.60;15.97;;;1.60;84.10;;;;;;4993979;28;20117;-68
2021/12/19 08:17:21;;;;;;;28.60;16.57;;;1.70;83.30;;;;;;4994635;28;20515;-68
2021/12/19 08:19:47;;;;;;;27.37;16.80;;;1.80;83.60;;;;;;4993162;28;20534;-66
2021/12/19 08:22:14;;;;;;;26.30;17.40;;;1.80;83.80;;;;;;4994226;28;20053;-66
2021/12/19 08:24:41;;;;;;;26.53;16.63;;;1.90;84.70;;;;;;4995413;28;20034;-66
2021/12/19 08:27:07;;;;;;;26.13;16.87;;;1.90;84.60;;;;;;4995046;28;20034;-66
2021/12/19 08:29:33;;;;;;;27.97;16.87;;;2.00;84.70;;;;;;4994690;28;20030;-65
2021/12/19 08:31:59;;;;;;;27.20;17.20;;;2.00;84.90;;;;;;4994771;28;20029;-66
2021/12/19 08:34:25;;;;;;;22.97;15.83;;;2.00;84.60;;;;;;4994423;28;20054;-66
2021/12/19 08:36:50;;;;;;;23.93;15.80;;;2.10;84.60;;;;;;4995061;28;20030;-66
2021/12/19 08:39:16;;;;;;;27.43;16.97;;;2.10;84.80;;;;;;4994668;28;20113;-65
2021/12/19 08:41:42;;;;;;;31.07;17.50;;;2.20;84.50;;;;;;4994756;28;20014;-66
2021/12/19 08:44:08;;;;;;;24.50;16.43;;;2.40;83.80;;;;;;4994638;28;20022;-66
2021/12/19 08:46:35;;;;;;;28.30;16.47;;;2.50;84.10;;;;;;4994474;28;20058;-65
2021/12/19 08:49:03;;;;;;;24.93;17.23;;;2.50;83.90;;;;;;4994700;28;20034;-66
2021/12/19 08:51:29;;;;;;;22.03;15.37;;;2.60;83.50;;;;;;4994676;28;20053;-65
2021/12/19 08:53:54;;;;;;;25.10;16.20;;;2.70;83.70;;;;;;4994550;28;20092;-67
2021/12/19 08:56:20;;;;;;;21.70;15.50;;;2.80;83.30;;;;;;4994596;28;20018;-65
2021/12/19 08:58:46;;;;;;;24.27;16.40;;;2.90;82.50;;;;;;4994564;28;20459;-66
2021/12/19 09:01:12;;;;;;;27.57;16.97;;;2.90;82.40;;;;;;4994673;28;20057;-66
2021/12/19 09:03:37;;;;;;;26.87;17.47;;;3.00;82.20;;;;;;4994515;28;20544;-66
2021/12/19 09:06:04;;;;;;;34.80;18.27;;;3.10;81.60;;;;;;4994349;28;20026;-66
2021/12/19 09:08:30;;;;;;;26.80;16.87;;;3.20;80.80;;;;;;4994682;28;20036;-67
2021/12/19 09:10:56;;;;;;;28.00;16.77;;;3.30;80.80;;;;;;4994161;28;20042;-67
2021/12/19 09:13:23;;;;;;;29.40;18.00;;;3.40;81.20;;;;;;4994162;28;20026;-67
2021/12/19 09:15:49;;;;;;;29.80;18.03;;;3.40;81.00;;;;;;4994311;28;20026;-66
2021/12/19 09:18:16;;;;;;;32.70;18.70;;;3.50;81.00;;;;;;4994162;28;20387;-68
2021/12/19 09:20:42;;;;;;;30.27;18.47;;;3.50;80.30;;;;;;4994270;28;20475;-66
2021/12/19 09:23:08;;;;;;;29.93;18.80;;;3.60;79.70;;;;;;4994046;28;20027;-69
2021/12/19 09:25:36;;;;;;;31.87;17.70;;;3.70;80.30;;;;;;4993967;28;20030;-66
2021/12/19 09:28:02;;;;;;;29.67;19.53;;;3.70;80.10;;;;;;4992652;28;20105;-67
2021/12/19 09:30:28;;;;;;;27.57;18.33;;;3.90;79.30;;;;;;4991058;28;20025;-67
2021/12/19 09:32:54;;;;;;;28.43;18.37;;;4.00;79.00;;;;;;4991417;28;20030;-68
2021/12/19 09:35:20;;;;;;;28.60;18.90;;;4.00;79.30;;;;;;4993722;28;20081;-67
2021/12/19 09:37:46;;;;;;;26.73;19.10;;;4.10;79.40;;;;;;4994211;28;20030;-66
2021/12/19 09:40:17;;;;;;;29.43;19.03;;;4.10;79.00;;;;;;4994233;28;20034;-67
2021/12/19 09:42:48;;;;;;;26.27;18.33;;;4.20;78.40;;;;;;4994022;28;20074;-68
2021/12/19 09:45:15;;;;;;;34.90;19.83;;;4.30;78.30;;;;;;4994118;28;20025;-66
2021/12/19 09:47:42;;;;;;;30.33;19.73;;;4.40;78.70;;;;;;4994051;28;20054;-71
2021/12/19 09:50:08;;;;;;;32.13;18.97;;;4.40;78.70;;;;;;4993768;28;20099;-65
2021/12/19 09:52:35;;;;;;;29.67;19.93;;;4.50;77.50;;;;;;4992875;28;20034;-65
2021/12/19 09:55:01;;;;;;;29.17;19.20;;;4.50;78.30;;;;;;4991101;28;20034;-67
2021/12/19 09:57:26;;;;;;;31.07;19.40;;;4.60;77.20;;;;;;4990882;28;20023;-73
2021/12/19 09:59:52;;;;;;;29.70;20.13;;;4.60;77.50;;;;;;4992481;28;20542;-66
2021/12/19 10:02:18;;;;;;;30.40;19.77;;;4.70;77.80;;;;;;4993422;28;20034;-68
2021/12/19 10:04:46;;;;;;;29.60;19.90;;;4.80;77.30;;;;;;4993378;28;20113;-69
2021/12/19 10:07:29;;;;;;;28.07;18.63;;;4.90;78.10;;;;;;4993304;28;20026;-69
2021/12/19 10:10:10;;;;;;;28.50;17.83;;;4.90;77.20;;;;;;4993485;28;20053;-67
2021/12/19 10:12:48;;;;;;;23.63;16.50;;;5.10;77.30;;;;;;4993394;28;20402;-68
2021/12/19 10:15:26;;;;;;;26.40;16.80;;;5.10;76.20;;;;;;4992999;28;20556;-68
2021/12/19 10:18:21;;;;;;;25.93;16.63;;;5.30;76.50;;;;;;4976149;28;20105;-68
2021/12/19 10:20:50;;;;;;;29.43;17.77;;;5.40;75.70;;;;;;4980130;28;20402;-69
2021/12/19 10:23:15;;;;;;;27.50;14.17;;;5.50;76.80;;;;;;4992997;28;20037;-70
2021/12/19 10:25:43;;;;;;;22.50;15.13;;;5.50;75.70;;;;;;4992994;28;20026;-67
2021/12/19 10:28:10;;;;;;;25.43;15.73;;;5.50;75.30;;;;;;4993424;28;20035;-67
2021/12/19 10:30:48;;;;;;;24.43;15.70;;;5.60;75.50;;;;;;4993247;28;20022;-68
2021/12/19 10:33:26;;;;;;;26.10;16.30;;;5.70;75.60;;;;;;4992902;28;20161;-69
2021/12/19 10:35:54;;;;;;;21.67;13.87;;;5.80;75.00;;;;;;4993232;28;20045;-69
2021/12/19 10:38:23;;;;;;;24.37;15.43;;;5.80;75.10;;;;;;4993064;28;20466;-68
2021/12/19 10:40:54;;;;;;;25.30;16.30;;;5.80;75.30;;;;;;4993275;28;20031;-68
2021/12/19 10:43:21;;;;;;;25.80;15.67;;;5.90;76.90;;;;;;4994868;28;20026;-68
2021/12/19 10:45:52;;;;;;;25.00;16.93;;;5.90;77.20;;;;;;4996634;28;20030;-67
2021/12/19 10:48:26;;;;;;;24.53;15.10;;;6.00;77.00;;;;;;4979583;28;20081;-68
2021/12/19 10:51:04;;;;;;;25.93;14.63;;;6.10;76.50;;;;;;4997148;28;20390;-69
2021/12/19 10:53:33;;;;;;;23.40;15.70;;;6.20;76.50;;;;;;4996636;28;20112;-68
2021/12/19 10:56:00;;;;;;;26.80;16.47;;;6.20;75.90;;;;;;4996832;28;20479;-69
2021/12/19 10:58:34;;;;;;;27.67;18.53;;;6.20;76.40;;;;;;4996447;28;20105;-69
2021/12/19 11:01:06;;;;;;;24.93;17.43;;;6.20;78.10;;;;;;4996187;28;20034;-68
2021/12/19 11:03:42;;;;;;;27.83;18.77;;;6.20;78.50;;;;;;4994892;28;20026;-71
2021/12/19 11:06:15;;;;;;;30.53;20.20;;;6.30;78.80;;;;;;4994977;28;20487;-68
2021/12/19 11:08:43;;;;;;;29.13;19.23;;;6.40;79.80;;;;;;4994418;28;20054;-68
2021/12/19 11:11:09;;;;;;;29.23;20.47;;;6.50;78.60;;;;;;4994526;28;20041;-69
2021/12/19 11:13:35;;;;;;;31.07;19.93;;;6.60;78.00;;;;;;4994530;28;20038;-69
2021/12/19 11:16:02;;;;;;;27.63;20.43;;;6.80;79.20;;;;;;4994919;28;20501;-68
2021/12/19 11:18:28;;;;;;;32.47;20.30;;;6.90;79.80;;;;;;4996377;28;20093;-68
2021/12/19 11:20:54;;;;;;;29.00;19.63;;;6.90;79.10;;;;;;4996500;28;20118;-68
2021/12/19 11:23:19;;;;;;;32.60;21.23;;;7.00;77.70;;;;;;4996090;28;20027;-70
2021/12/19 11:25:46;;;;;;;33.03;21.97;;;7.00;77.50;;;;;;4996601;28;20030;-68
2021/12/19 11:28:12;;;;;;;32.40;22.47;;;6.90;78.50;;;;;;4996495;28;20081;-68
2021/12/19 11:30:38;;;;;;;35.63;23.80;;;6.90;79.10;;;;;;4996385;28;20475;-69
2021/12/19 11:33:35;;;;;;;34.27;22.87;;;6.90;80.20;;;;;;4996416;28;20030;-68
2021/12/19 11:36:02;;;;;;;38.97;24.77;;;7.00;81.20;;;;;;4996262;28;20125;-68
2021/12/19 11:38:29;;;;;;;37.87;25.73;;;7.10;81.80;;;;;;4996575;28;20134;-67
2021/12/19 11:40:54;;;;;;;34.77;24.20;;;7.10;82.50;;;;;;4996558;28;20085;-67
2021/12/19 11:43:20;;;;;;;35.50;23.70;;;7.10;82.00;;;;;;4996302;28;20031;-67
2021/12/19 11:45:59;;;;;;;36.50;23.17;;;7.20;82.00;;;;;;4996397;28;20419;-67
2021/12/19 11:48:33;;;;;;;30.67;21.57;;;7.30;81.60;;;;;;4996203;28;20073;-68
2021/12/19 11:51:15;;;;;;;38.50;23.83;;;7.40;80.70;;;;;;4996150;28;20081;-67
2021/12/19 11:53:43;;;;;;;30.13;21.55;;;7.40;80.40;;;;;;4995781;28;20030;-67
2021/12/19 11:56:14;;;;;;;32.20;22.87;;;7.40;80.90;;;;;;4996160;28;20037;-67
2021/12/19 11:58:55;;;;;;;31.60;22.00;;;7.40;80.40;;;;;;4993935;28;20026;-67
2021/12/19 12:01:25;;;;;;;30.63;20.43;;;7.30;80.50;;;;;;4993202;28;20022;-68
2021/12/19 12:03:59;;;;;;;33.83;21.00;;;7.30;81.00;;;;;;4994251;28;20467;-67
2021/12/19 12:06:26;;;;;;;32.70;22.47;;;7.40;80.90;;;;;;4995841;28;20426;-68
2021/12/19 12:09:22;;;;;;;34.77;22.60;;;7.40;80.80;;;;;;4995803;28;20034;-68
2021/12/19 12:12:00;;;;;;;31.57;21.87;;;7.40;81.40;;;;;;4995657;28;20077;-67
2021/12/19 12:14:35;;;;;;;31.77;22.40;;;7.40;81.10;;;;;;4995349;28;20034;-68
2021/12/19 12:17:12;;;;;;;34.40;22.70;;;7.40;81.10;;;;;;4994872;28;20033;-69
2021/12/19 12:19:38;;;;;;;35.63;22.73;;;7.50;80.40;;;;;;4994855;28;20072;-69
2021/12/19 12:22:23;;;;;;;29.93;21.60;;;7.60;81.00;;;;;;4994603;28;20026;-68
2021/12/19 12:25:07;;;;;;;28.70;22.10;;;7.70;80.00;;;;;;4991961;28;20089;-69
2021/12/19 12:27:37;;;;;;;34.97;23.20;;;7.60;80.50;;;;;;4992556;28;20038;-68
2021/12/19 12:30:08;;;;;;;35.10;23.37;;;7.50;80.70;;;;;;4993824;28;20058;-68
2021/12/19 12:32:34;;;;;;;33.30;23.43;;;7.50;81.50;;;;;;4979611;28;20036;-68
2021/12/19 12:35:00;;;;;;;35.83;24.23;;;7.50;81.80;;;;;;4997573;28;20121;-67
2021/12/19 12:37:27;;;;;;;39.00;24.37;;;7.60;82.40;;;;;;4995741;28;20037;-67
2021/12/19 12:43:16;;;;;;;35.70;25.23;;;7.70;81.60;;;;;;4967103;28;20042;-67
2021/12/19 12:46:00;;;;;;;34.47;24.40;;;7.60;82.00;;;;;;4995514;28;20030;-68
2021/12/19 12:48:29;;;;;;;38.00;24.57;;;7.60;81.90;;;;;;4994868;28;20153;-67
2021/12/19 12:50:55;;;;;;;36.80;24.07;;;7.70;81.80;;;;;;4994636;28;20098;-68
2021/12/19 12:53:37;;;;;;;39.20;25.40;;;7.70;82.40;;;;;;4994399;28;20383;-68
2021/12/19 12:56:10;;;;;;;37.00;25.20;;;7.80;82.10;;;;;;4994591;28;20105;-67
2021/12/19 12:58:38;;;;;;;37.17;25.57;;;7.80;81.20;;;;;;4994610;28;20019;-68
2021/12/19 13:01:29;;;;;;;37.23;24.63;;;7.90;81.10;;;;;;4994254;28;20027;-68
2021/12/19 13:04:04;;;;;;;37.93;24.80;;;7.90;80.70;;;;;;4994459;28;20030;-68
2021/12/19 13:06:42;;;;;;;32.73;24.27;;;7.80;81.00;;;;;;4993784;28;20033;-68
2021/12/19 13:09:12;;;;;;;37.27;27.33;;;7.90;80.60;;;;;;4994198;28;20386;-67
2021/12/19 13:11:38;;;;;;;35.37;24.67;;;7.90;81.20;;;;;;4976972;28;20415;-68
2021/12/19 13:14:31;;;;;;;32.67;24.10;;;7.90;81.00;;;;;;4994274;28;20029;-68
2021/12/19 13:17:00;;;;;;;32.70;24.38;;;7.70;81.60;;;;;;4989138;28;20043;-69
2021/12/19 13:19:44;;;;;;;38.13;25.23;;;7.60;82.30;;;;;;4991637;28;20030;-68
2021/12/19 13:22:15;;;;;;;35.73;25.07;;;7.50;82.70;;;;;;4991488;28;20093;-65
2021/12/19 13:24:42;;;;;;;36.90;24.50;;;7.40;83.20;;;;;;4993216;28;20034;-66
2021/12/19 13:27:29;;;;;;;37.20;26.07;;;7.40;83.60;;;;;;4994027;28;20061;-68
2021/12/19 13:30:07;;;;;;;38.47;27.40;;;7.30;84.00;;;;;;4993949;28;20026;-68
2021/12/19 13:32:40;;;;;;;38.63;25.90;;;7.40;84.30;;;;;;4993820;28;20038;-67
2021/12/19 13:35:29;;;;;;;35.93;26.80;;;7.40;84.30;;;;;;4993973;28;20123;-69
2021/12/19 13:38:19;;;;;;;38.70;26.97;;;7.40;84.30;;;;;;4994213;28;20117;-68
2021/12/19 13:40:56;;;;;;;35.57;27.20;;;7.30;84.40;;;;;;4993624;28;20133;-68
2021/12/19 13:43:23;;;;;;;39.20;25.93;;;7.30;84.40;;;;;;4994095;28;20101;-67
2021/12/19 13:45:56;;;;;;;37.33;27.50;;;7.30;84.60;;;;;;4993999;28;20076;-69
2021/12/19 13:48:21;;;;;;;37.87;29.03;;;7.30;84.60;;;;;;4994014;28;20019;-67
2021/12/19 13:50:57;;;;;;;40.03;28.83;;;7.20;85.10;;;;;;4976474;28;20498;-68
2021/12/19 13:53:24;;;;;;;38.40;29.83;;;7.10;85.40;;;;;;4993816;28;20028;-71
2021/12/19 13:55:58;;;;;;;41.87;30.23;;;7.10;85.80;;;;;;4993657;28;20026;-68
2021/12/19 13:58:35;;;;;;;41.80;30.63;;;7.00;86.00;;;;;;4993751;28;20030;-68